sensor_id;sensor_type;location;lat;lon;timestamp;temperature;humidity
23721;DHT22;42950;52.134;5.578;2023-03-14T00:00:09;12.30;99.90
23721;DHT22;42950;52.134;5.578;2023-03-14T00:02:36;12.20;99.90
23721;DHT22;42950;52.134;5.578;2023-03-14T00:05:02;12.20;99.90
23721;DHT22;42950;52.134;5.578;2023-03-14T00:07:36;12.20;99.90
23721;DHT22;42950;52.134;5.578;2023-03-14T00:10:04;12.20;99.90
23721;DHT22;42950;52.134;5.578;2023-03-14T00:12:31;12.10;99.90
23721;DHT22;42950;52.134;5.578;2023-03-14T00:14:57;12.10;99.90
23721;DHT22;42950;52.134;5.578;2023-03-14T00:17:23;12.00;99.90
23721;DHT22;42950;52.134;5.578;2023-03-14T00:19:48;11.90;99.90
23721;DHT22;42950;52.134;5.578;2023-03-14T00:22:17;11.90;99.90
23721;DHT22;42950;52.134;5.578;2023-03-14T00:24:45;11.90;99.90
23721;DHT22;42950;52.134;5.578;2023-03-14T00:27:11;11.80;99.90
23721;DHT22;42950;52.134;5.578;2023-03-14T00:29:36;11.80;99.90
23721;DHT22;42950;52.134;5.578;2023-03-14T00:32:02;11.80;99.90
23721;DHT22;42950;52.134;5.578;2023-03-14T00:34:32;11.80;99.90
23721;DHT22;42950;52.134;5.578;2023-03-14T00:36:58;11.70;99.90
23721;DHT22;42950;52.134;5.578;2023-03-14T00:39:23;11.70;99.90
23721;DHT22;42950;52.134;5.578;2023-03-14T00:41:49;11.70;99.90
23721;DHT22;42950;52.134;5.578;2023-03-14T00:44:15;11.70;99.90
23721;DHT22;42950;52.134;5.578;2023-03-14T00:46:40;11.70;99.90
23721;DHT22;42950;52.134;5.578;2023-03-14T00:49:06;11.70;99.90
23721;DHT22;42950;52.134;5.578;2023-03-14T00:51:32;11.60;99.90
23721;DHT22;42950;52.134;5.578;2023-03-14T00:53:57;11.60;99.90
23721;DHT22;42950;52.134;5.578;2023-03-14T00:56:23;11.50;99.90
23721;DHT22;42950;52.134;5.578;2023-03-14T00:58:48;11.50;99.90
23721;DHT22;42950;52.134;5.578;2023-03-14T01:01:17;11.50;99.90
23721;DHT22;42950;52.134;5.578;2023-03-14T01:03:44;11.50;99.90
23721;DHT22;42950;52.134;5.578;2023-03-14T01:06:20;11.40;99.90
23721;DHT22;42950;52.134;5.578;2023-03-14T01:08:47;11.50;99.90
23721;DHT22;42950;52.134;5.578;2023-03-14T01:11:15;11.50;99.90
23721;DHT22;42950;52.134;5.578;2023-03-14T01:13:42;11.50;99.90
23721;DHT22;42950;52.134;5.578;2023-03-14T01:16:09;11.40;99.90
23721;DHT22;42950;52.134;5.578;2023-03-14T01:18:36;11.30;99.90
23721;DHT22;42950;52.134;5.578;2023-03-14T01:21:08;11.20;99.90
23721;DHT22;42950;52.134;5.578;2023-03-14T01:23:34;11.10;99.90
23721;DHT22;42950;52.134;5.578;2023-03-14T01:26:00;11.10;99.90
23721;DHT22;42950;52.134;5.578;2023-03-14T01:28:26;10.90;99.90
23721;DHT22;42950;52.134;5.578;2023-03-14T01:30:52;10.80;99.90
23721;DHT22;42950;52.134;5.578;2023-03-14T01:33:18;10.70;99.90
23721;DHT22;42950;52.134;5.578;2023-03-14T01:35:43;10.60;99.90
23721;DHT22;42950;52.134;5.578;2023-03-14T01:38:09;10.50;99.90
23721;DHT22;42950;52.134;5.578;2023-03-14T01:40:42;10.40;99.90
23721;DHT22;42950;52.134;5.578;2023-03-14T01:43:15;10.30;99.90
23721;DHT22;42950;52.134;5.578;2023-03-14T01:56:38;9.90;99.90
23721;DHT22;42950;52.134;5.578;2023-03-14T01:59:06;9.90;99.90
23721;DHT22;42950;52.134;5.578;2023-03-14T02:01:34;9.90;99.90
23721;DHT22;42950;52.134;5.578;2023-03-14T02:04:02;9.90;99.90
23721;DHT22;42950;52.134;5.578;2023-03-14T02:06:34;9.80;99.90
23721;DHT22;42950;52.134;5.578;2023-03-14T02:09:02;9.80;99.90
23721;DHT22;42950;52.134;5.578;2023-03-14T02:11:30;9.90;99.90
23721;DHT22;42950;52.134;5.578;2023-03-14T02:13:58;9.90;99.90
23721;DHT22;42950;52.134;5.578;2023-03-14T02:16:24;9.90;99.90
23721;DHT22;42950;52.134;5.578;2023-03-14T02:18:50;9.80;99.90
23721;DHT22;42950;52.134;5.578;2023-03-14T02:26:39;9.80;99.90
23721;DHT22;42950;52.134;5.578;2023-03-14T02:29:06;9.80;99.90
23721;DHT22;42950;52.134;5.578;2023-03-14T02:31:32;9.80;99.90
23721;DHT22;42950;52.134;5.578;2023-03-14T02:33:59;9.80;99.90
23721;DHT22;42950;52.134;5.578;2023-03-14T02:36:26;9.80;99.90
23721;DHT22;42950;52.134;5.578;2023-03-14T02:39:15;9.80;99.90
23721;DHT22;42950;52.134;5.578;2023-03-14T02:41:45;9.80;99.90
23721;DHT22;42950;52.134;5.578;2023-03-14T02:44:12;9.80;99.90
23721;DHT22;42950;52.134;5.578;2023-03-14T02:46:38;9.80;99.90
23721;DHT22;42950;52.134;5.578;2023-03-14T02:49:08;9.80;99.90
23721;DHT22;42950;52.134;5.578;2023-03-14T02:51:35;9.80;99.90
23721;DHT22;42950;52.134;5.578;2023-03-14T02:54:02;9.70;99.90
23721;DHT22;42950;52.134;5.578;2023-03-14T02:56:27;9.70;99.90
23721;DHT22;42950;52.134;5.578;2023-03-14T02:58:54;9.80;99.90
23721;DHT22;42950;52.134;5.578;2023-03-14T03:01:20;9.80;99.90
23721;DHT22;42950;52.134;5.578;2023-03-14T03:03:45;9.80;99.90
23721;DHT22;42950;52.134;5.578;2023-03-14T03:06:12;9.70;99.90
23721;DHT22;42950;52.134;5.578;2023-03-14T03:08:39;9.80;99.90
23721;DHT22;42950;52.134;5.578;2023-03-14T03:11:05;9.80;99.90
23721;DHT22;42950;52.134;5.578;2023-03-14T03:13:30;9.70;99.90
23721;DHT22;42950;52.134;5.578;2023-03-14T03:15:56;9.80;99.90
23721;DHT22;42950;52.134;5.578;2023-03-14T03:18:21;9.80;99.90
23721;DHT22;42950;52.134;5.578;2023-03-14T03:20:47;9.80;99.90
23721;DHT22;42950;52.134;5.578;2023-03-14T03:23:13;9.80;99.90
23721;DHT22;42950;52.134;5.578;2023-03-14T03:25:38;9.80;99.90
23721;DHT22;42950;52.134;5.578;2023-03-14T03:28:04;9.80;99.90
23721;DHT22;42950;52.134;5.578;2023-03-14T03:30:42;9.80;99.90
23721;DHT22;42950;52.134;5.578;2023-03-14T03:33:08;9.90;99.90
23721;DHT22;42950;52.134;5.578;2023-03-14T03:35:34;9.90;99.90
23721;DHT22;42950;52.134;5.578;2023-03-14T03:38:00;9.90;99.90
23721;DHT22;42950;52.134;5.578;2023-03-14T03:40:26;9.90;99.90
23721;DHT22;42950;52.134;5.578;2023-03-14T03:42:52;9.90;99.90
23721;DHT22;42950;52.134;5.578;2023-03-14T03:45:17;9.90;99.90
23721;DHT22;42950;52.134;5.578;2023-03-14T03:47:43;9.90;99.90
23721;DHT22;42950;52.134;5.578;2023-03-14T03:50:08;9.90;99.90
23721;DHT22;42950;52.134;5.578;2023-03-14T03:52:34;9.90;99.90
23721;DHT22;42950;52.134;5.578;2023-03-14T03:55:00;9.90;99.90
23721;DHT22;42950;52.134;5.578;2023-03-14T03:57:25;9.90;99.90
23721;DHT22;42950;52.134;5.578;2023-03-14T03:59:51;9.80;99.90
23721;DHT22;42950;52.134;5.578;2023-03-14T04:02:16;9.80;99.90
23721;DHT22;42950;52.134;5.578;2023-03-14T04:04:42;9.80;99.90
23721;DHT22;42950;52.134;5.578;2023-03-14T04:07:07;9.80;99.90
23721;DHT22;42950;52.134;5.578;2023-03-14T04:09:33;9.80;99.90
23721;DHT22;42950;52.134;5.578;2023-03-14T04:11:58;9.90;99.90
23721;DHT22;42950;52.134;5.578;2023-03-14T04:14:24;9.90;99.90
23721;DHT22;42950;52.134;5.578;2023-03-14T04:16:49;9.90;99.90
23721;DHT22;42950;52.134;5.578;2023-03-14T04:19:15;9.90;99.90
23721;DHT22;42950;52.134;5.578;2023-03-14T04:21:41;10.00;99.90
23721;DHT22;42950;52.134;5.578;2023-03-14T04:24:10;10.00;99.90
23721;DHT22;42950;52.134;5.578;2023-03-14T04:26:36;10.00;99.90
23721;DHT22;42950;52.134;5.578;2023-03-14T04:29:02;10.00;99.90
23721;DHT22;42950;52.134;5.578;2023-03-14T04:31:27;10.00;99.90
23721;DHT22;42950;52.134;5.578;2023-03-14T04:33:53;10.00;99.90
23721;DHT22;42950;52.134;5.578;2023-03-14T04:36:18;10.10;99.90
23721;DHT22;42950;52.134;5.578;2023-03-14T04:38:44;10.00;99.90
23721;DHT22;42950;52.134;5.578;2023-03-14T04:41:10;10.10;99.90
23721;DHT22;42950;52.134;5.578;2023-03-14T04:43:35;10.00;99.90
23721;DHT22;42950;52.134;5.578;2023-03-14T04:46:01;10.10;99.90
23721;DHT22;42950;52.134;5.578;2023-03-14T04:48:27;10.10;99.90
23721;DHT22;42950;52.134;5.578;2023-03-14T04:50:52;10.10;99.90
23721;DHT22;42950;52.134;5.578;2023-03-14T04:53:18;10.10;99.90
23721;DHT22;42950;52.134;5.578;2023-03-14T04:55:52;10.10;99.90
23721;DHT22;42950;52.134;5.578;2023-03-14T04:58:18;10.10;99.90
23721;DHT22;42950;52.134;5.578;2023-03-14T05:00:44;10.10;99.90
23721;DHT22;42950;52.134;5.578;2023-03-14T05:03:09;10.10;99.90
23721;DHT22;42950;52.134;5.578;2023-03-14T05:05:35;10.10;99.90
23721;DHT22;42950;52.134;5.578;2023-03-14T05:08:00;10.10;99.90
23721;DHT22;42950;52.134;5.578;2023-03-14T05:10:26;10.10;99.90
23721;DHT22;42950;52.134;5.578;2023-03-14T05:12:52;10.10;99.90
23721;DHT22;42950;52.134;5.578;2023-03-14T05:15:17;10.10;99.90
23721;DHT22;42950;52.134;5.578;2023-03-14T05:17:43;10.10;99.90
23721;DHT22;42950;52.134;5.578;2023-03-14T05:20:09;10.10;99.90
23721;DHT22;42950;52.134;5.578;2023-03-14T05:22:35;10.10;99.90
23721;DHT22;42950;52.134;5.578;2023-03-14T05:25:00;10.10;99.90
23721;DHT22;42950;52.134;5.578;2023-03-14T05:27:26;10.00;99.90
23721;DHT22;42950;52.134;5.578;2023-03-14T05:29:51;10.00;99.90
23721;DHT22;42950;52.134;5.578;2023-03-14T05:32:17;10.00;99.90
23721;DHT22;42950;52.134;5.578;2023-03-14T05:34:42;9.90;99.90
23721;DHT22;42950;52.134;5.578;2023-03-14T05:37:08;9.80;99.90
23721;DHT22;42950;52.134;5.578;2023-03-14T05:39:33;9.80;99.90
23721;DHT22;42950;52.134;5.578;2023-03-14T05:41:59;9.80;99.90
23721;DHT22;42950;52.134;5.578;2023-03-14T05:44:24;9.70;99.90
23721;DHT22;42950;52.134;5.578;2023-03-14T05:46:50;9.70;99.90
23721;DHT22;42950;52.134;5.578;2023-03-14T05:49:15;9.70;99.90
23721;DHT22;42950;52.134;5.578;2023-03-14T05:51:41;9.70;99.90
23721;DHT22;42950;52.134;5.578;2023-03-14T05:54:07;9.70;99.90
23721;DHT22;42950;52.134;5.578;2023-03-14T05:56:33;9.70;99.90
23721;DHT22;42950;52.134;5.578;2023-03-14T05:58:58;9.70;99.90
23721;DHT22;42950;52.134;5.578;2023-03-14T06:01:27;9.60;99.90
23721;DHT22;42950;52.134;5.578;2023-03-14T06:03:53;9.60;99.90
23721;DHT22;42950;52.134;5.578;2023-03-14T06:06:18;9.60;99.90
23721;DHT22;42950;52.134;5.578;2023-03-14T06:08:44;9.60;99.90
23721;DHT22;42950;52.134;5.578;2023-03-14T06:11:09;9.60;99.90
23721;DHT22;42950;52.134;5.578;2023-03-14T06:13:35;9.60;99.90
23721;DHT22;42950;52.134;5.578;2023-03-14T06:16:01;9.60;99.90
23721;DHT22;42950;52.134;5.578;2023-03-14T06:18:26;9.60;99.90
23721;DHT22;42950;52.134;5.578;2023-03-14T06:20:55;9.60;99.90
23721;DHT22;42950;52.134;5.578;2023-03-14T06:23:21;9.60;99.90
23721;DHT22;42950;52.134;5.578;2023-03-14T06:25:48;9.60;99.90
23721;DHT22;42950;52.134;5.578;2023-03-14T06:28:14;9.60;99.90
23721;DHT22;42950;52.134;5.578;2023-03-14T06:30:39;9.60;99.90
23721;DHT22;42950;52.134;5.578;2023-03-14T06:33:06;9.70;99.90
23721;DHT22;42950;52.134;5.578;2023-03-14T06:35:33;9.70;99.90
23721;DHT22;42950;52.134;5.578;2023-03-14T06:37:59;9.70;99.90
23721;DHT22;42950;52.134;5.578;2023-03-14T06:40:24;9.70;99.90
23721;DHT22;42950;52.134;5.578;2023-03-14T06:42:50;9.70;99.90
23721;DHT22;42950;52.134;5.578;2023-03-14T06:45:15;9.70;99.90
23721;DHT22;42950;52.134;5.578;2023-03-14T06:47:41;9.70;99.90
23721;DHT22;42950;52.134;5.578;2023-03-14T06:50:07;9.70;99.90
23721;DHT22;42950;52.134;5.578;2023-03-14T06:52:33;9.70;99.90
23721;DHT22;42950;52.134;5.578;2023-03-14T06:54:59;9.70;99.90
23721;DHT22;42950;52.134;5.578;2023-03-14T06:57:25;9.70;99.90
23721;DHT22;42950;52.134;5.578;2023-03-14T06:59:50;9.70;99.90
23721;DHT22;42950;52.134;5.578;2023-03-14T07:02:16;9.50;99.90
23721;DHT22;42950;52.134;5.578;2023-03-14T07:04:41;9.50;99.90
23721;DHT22;42950;52.134;5.578;2023-03-14T07:07:07;9.30;99.90
23721;DHT22;42950;52.134;5.578;2023-03-14T07:09:33;9.00;99.90
23721;DHT22;42950;52.134;5.578;2023-03-14T07:11:59;8.90;99.90
23721;DHT22;42950;52.134;5.578;2023-03-14T07:14:25;8.70;99.90
23721;DHT22;42950;52.134;5.578;2023-03-14T07:16:50;8.60;99.90
23721;DHT22;42950;52.134;5.578;2023-03-14T07:19:16;8.50;99.90
23721;DHT22;42950;52.134;5.578;2023-03-14T07:21:41;8.40;99.90
23721;DHT22;42950;52.134;5.578;2023-03-14T07:24:07;8.30;99.90
23721;DHT22;42950;52.134;5.578;2023-03-14T07:26:33;8.20;99.90
23721;DHT22;42950;52.134;5.578;2023-03-14T07:28:59;8.20;99.90
23721;DHT22;42950;52.134;5.578;2023-03-14T07:31:24;8.20;99.90
23721;DHT22;42950;52.134;5.578;2023-03-14T07:33:50;8.20;99.90
23721;DHT22;42950;52.134;5.578;2023-03-14T07:36:16;8.20;99.90
23721;DHT22;42950;52.134;5.578;2023-03-14T07:38:42;8.20;99.90
23721;DHT22;42950;52.134;5.578;2023-03-14T07:41:08;8.10;99.90
23721;DHT22;42950;52.134;5.578;2023-03-14T07:43:33;8.10;99.90
23721;DHT22;42950;52.134;5.578;2023-03-14T07:45:59;8.00;99.90
23721;DHT22;42950;52.134;5.578;2023-03-14T07:48:25;8.00;99.90
23721;DHT22;42950;52.134;5.578;2023-03-14T07:50:53;8.00;99.90
23721;DHT22;42950;52.134;5.578;2023-03-14T07:53:20;8.00;99.90
23721;DHT22;42950;52.134;5.578;2023-03-14T07:55:46;8.00;99.90
23721;DHT22;42950;52.134;5.578;2023-03-14T07:58:12;8.00;99.90
23721;DHT22;42950;52.134;5.578;2023-03-14T08:00:38;7.90;99.90
23721;DHT22;42950;52.134;5.578;2023-03-14T08:03:04;7.90;99.90
23721;DHT22;42950;52.134;5.578;2023-03-14T08:05:29;7.80;99.90
23721;DHT22;42950;52.134;5.578;2023-03-14T08:07:55;7.80;99.90
23721;DHT22;42950;52.134;5.578;2023-03-14T08:10:21;7.70;99.90
23721;DHT22;42950;52.134;5.578;2023-03-14T08:12:48;7.50;99.90
23721;DHT22;42950;52.134;5.578;2023-03-14T08:15:14;7.30;99.90
23721;DHT22;42950;52.134;5.578;2023-03-14T08:17:39;7.00;99.90
23721;DHT22;42950;52.134;5.578;2023-03-14T08:20:05;6.70;99.90
23721;DHT22;42950;52.134;5.578;2023-03-14T08:22:33;6.50;99.90
23721;DHT22;42950;52.134;5.578;2023-03-14T08:24:58;6.50;99.90
23721;DHT22;42950;52.134;5.578;2023-03-14T08:27:24;6.40;99.90
23721;DHT22;42950;52.134;5.578;2023-03-14T08:29:49;6.50;99.90
23721;DHT22;42950;52.134;5.578;2023-03-14T08:32:15;6.40;99.90
23721;DHT22;42950;52.134;5.578;2023-03-14T08:34:40;6.40;99.90
23721;DHT22;42950;52.134;5.578;2023-03-14T08:37:06;6.30;99.90
23721;DHT22;42950;52.134;5.578;2023-03-14T08:39:32;6.30;99.90
23721;DHT22;42950;52.134;5.578;2023-03-14T08:41:57;6.40;99.90
23721;DHT22;42950;52.134;5.578;2023-03-14T08:44:23;6.40;99.90
23721;DHT22;42950;52.134;5.578;2023-03-14T08:46:48;6.40;99.90
23721;DHT22;42950;52.134;5.578;2023-03-14T08:49:14;6.40;99.90
23721;DHT22;42950;52.134;5.578;2023-03-14T08:51:40;6.50;99.90
23721;DHT22;42950;52.134;5.578;2023-03-14T08:54:05;6.40;99.90
23721;DHT22;42950;52.134;5.578;2023-03-14T08:56:31;6.40;99.90
23721;DHT22;42950;52.134;5.578;2023-03-14T08:58:56;6.40;99.90
23721;DHT22;42950;52.134;5.578;2023-03-14T09:01:22;6.40;99.90
23721;DHT22;42950;52.134;5.578;2023-03-14T09:03:50;6.50;99.90
23721;DHT22;42950;52.134;5.578;2023-03-14T09:06:16;6.50;99.90
23721;DHT22;42950;52.134;5.578;2023-03-14T09:08:44;6.60;99.90
23721;DHT22;42950;52.134;5.578;2023-03-14T09:11:11;6.60;99.90
23721;DHT22;42950;52.134;5.578;2023-03-14T09:13:37;6.70;99.90
23721;DHT22;42950;52.134;5.578;2023-03-14T09:16:03;6.60;99.90
23721;DHT22;42950;52.134;5.578;2023-03-14T09:18:29;6.60;99.90
23721;DHT22;42950;52.134;5.578;2023-03-14T09:20:55;6.70;99.90
23721;DHT22;42950;52.134;5.578;2023-03-14T09:23:21;6.70;99.90
23721;DHT22;42950;52.134;5.578;2023-03-14T09:25:47;6.70;99.90
23721;DHT22;42950;52.134;5.578;2023-03-14T09:28:12;6.70;99.90
23721;DHT22;42950;52.134;5.578;2023-03-14T09:30:38;6.70;99.90
23721;DHT22;42950;52.134;5.578;2023-03-14T09:33:04;6.70;99.90
23721;DHT22;42950;52.134;5.578;2023-03-14T09:35:29;6.80;99.90
23721;DHT22;42950;52.134;5.578;2023-03-14T09:37:55;6.80;99.90
23721;DHT22;42950;52.134;5.578;2023-03-14T09:40:21;6.90;99.90
23721;DHT22;42950;52.134;5.578;2023-03-14T09:42:50;6.90;99.90
23721;DHT22;42950;52.134;5.578;2023-03-14T09:45:28;6.90;99.90
23721;DHT22;42950;52.134;5.578;2023-03-14T09:47:56;6.90;99.90
23721;DHT22;42950;52.134;5.578;2023-03-14T09:50:23;6.90;99.90
23721;DHT22;42950;52.134;5.578;2023-03-14T09:52:52;7.00;99.90
23721;DHT22;42950;52.134;5.578;2023-03-14T09:55:22;6.90;99.90
23721;DHT22;42950;52.134;5.578;2023-03-14T09:57:50;7.00;99.90
23721;DHT22;42950;52.134;5.578;2023-03-14T10:00:26;7.10;99.90
23721;DHT22;42950;52.134;5.578;2023-03-14T10:02:53;7.00;99.90
23721;DHT22;42950;52.134;5.578;2023-03-14T10:05:21;7.00;99.90
23721;DHT22;42950;52.134;5.578;2023-03-14T10:07:47;7.00;99.90
23721;DHT22;42950;52.134;5.578;2023-03-14T10:12:43;7.00;99.90
23721;DHT22;42950;52.134;5.578;2023-03-14T10:15:11;7.00;99.90
23721;DHT22;42950;52.134;5.578;2023-03-14T10:17:47;7.10;99.90
23721;DHT22;42950;52.134;5.578;2023-03-14T10:20:28;7.20;99.90
23721;DHT22;42950;52.134;5.578;2023-03-14T10:22:58;7.20;99.90
23721;DHT22;42950;52.134;5.578;2023-03-14T10:25:35;7.30;99.90
23721;DHT22;42950;52.134;5.578;2023-03-14T10:28:01;7.20;99.90
23721;DHT22;42950;52.134;5.578;2023-03-14T10:30:40;7.20;99.90
23721;DHT22;42950;52.134;5.578;2023-03-14T10:35:44;6.70;99.90
23721;DHT22;42950;52.134;5.578;2023-03-14T10:38:15;6.60;99.90
23721;DHT22;42950;52.134;5.578;2023-03-14T10:40:50;6.60;99.90
23721;DHT22;42950;52.134;5.578;2023-03-14T10:43:21;6.70;99.90
23721;DHT22;42950;52.134;5.578;2023-03-14T10:46:08;6.80;99.90
23721;DHT22;42950;52.134;5.578;2023-03-14T10:48:36;6.90;99.90
23721;DHT22;42950;52.134;5.578;2023-03-14T10:51:22;7.10;99.90
23721;DHT22;42950;52.134;5.578;2023-03-14T10:56:25;7.20;99.90
23721;DHT22;42950;52.134;5.578;2023-03-14T10:58:53;7.20;99.90
23721;DHT22;42950;52.134;5.578;2023-03-14T11:01:34;6.80;99.90
23721;DHT22;42950;52.134;5.578;2023-03-14T11:09:48;6.70;99.90
23721;DHT22;42950;52.134;5.578;2023-03-14T11:12:34;6.80;99.90
23721;DHT22;42950;52.134;5.578;2023-03-14T11:15:12;6.90;99.90
23721;DHT22;42950;52.134;5.578;2023-03-14T11:17:46;7.00;99.90
23721;DHT22;42950;52.134;5.578;2023-03-14T11:20:45;7.00;99.90
23721;DHT22;42950;52.134;5.578;2023-03-14T11:23:18;6.90;99.90
23721;DHT22;42950;52.134;5.578;2023-03-14T11:28:48;7.10;99.90
23721;DHT22;42950;52.134;5.578;2023-03-14T11:31:20;7.20;99.90
23721;DHT22;42950;52.134;5.578;2023-03-14T11:36:53;7.30;99.90
23721;DHT22;42950;52.134;5.578;2023-03-14T11:39:21;7.60;99.90
23721;DHT22;42950;52.134;5.578;2023-03-14T11:41:52;7.80;99.90
23721;DHT22;42950;52.134;5.578;2023-03-14T11:44:30;8.00;99.90
23721;DHT22;42950;52.134;5.578;2023-03-14T11:47:12;8.10;99.90
23721;DHT22;42950;52.134;5.578;2023-03-14T11:49:51;8.20;99.90
23721;DHT22;42950;52.134;5.578;2023-03-14T11:53:08;8.20;99.90
23721;DHT22;42950;52.134;5.578;2023-03-14T11:55:19;8.30;99.90
23721;DHT22;42950;52.134;5.578;2023-03-14T11:57:47;8.00;99.90
23721;DHT22;42950;52.134;5.578;2023-03-14T12:00:22;7.90;99.90
23721;DHT22;42950;52.134;5.578;2023-03-14T12:03:02;7.90;99.90
23721;DHT22;42950;52.134;5.578;2023-03-14T12:05:46;7.90;99.90
23721;DHT22;42950;52.134;5.578;2023-03-14T12:08:30;8.00;99.90
23721;DHT22;42950;52.134;5.578;2023-03-14T12:11:18;8.00;99.90
23721;DHT22;42950;52.134;5.578;2023-03-14T12:13:50;8.10;99.90
23721;DHT22;42950;52.134;5.578;2023-03-14T12:18:45;8.40;99.90
23721;DHT22;42950;52.134;5.578;2023-03-14T12:21:12;8.50;99.90
23721;DHT22;42950;52.134;5.578;2023-03-14T12:23:50;8.40;99.90
23721;DHT22;42950;52.134;5.578;2023-03-14T12:26:20;8.40;99.90
23721;DHT22;42950;52.134;5.578;2023-03-14T12:28:51;8.50;99.90
23721;DHT22;42950;52.134;5.578;2023-03-14T12:39:40;8.50;99.90
23721;DHT22;42950;52.134;5.578;2023-03-14T12:42:17;8.60;99.90
23721;DHT22;42950;52.134;5.578;2023-03-14T12:44:47;8.60;99.90
23721;DHT22;42950;52.134;5.578;2023-03-14T12:49:52;8.40;99.90
23721;DHT22;42950;52.134;5.578;2023-03-14T12:52:33;8.60;99.90
23721;DHT22;42950;52.134;5.578;2023-03-14T12:55:33;8.60;99.90
23721;DHT22;42950;52.134;5.578;2023-03-14T12:58:16;8.50;99.90
23721;DHT22;42950;52.134;5.578;2023-03-14T13:00:42;8.60;99.90
23721;DHT22;42950;52.134;5.578;2023-03-14T13:03:22;8.50;99.90
23721;DHT22;42950;52.134;5.578;2023-03-14T13:05:57;8.40;99.90
23721;DHT22;42950;52.134;5.578;2023-03-14T13:08:43;8.50;99.90
23721;DHT22;42950;52.134;5.578;2023-03-14T13:11:16;8.50;99.90
23721;DHT22;42950;52.134;5.578;2023-03-14T13:13:55;8.60;99.90
23721;DHT22;42950;52.134;5.578;2023-03-14T13:16:21;8.90;99.90
23721;DHT22;42950;52.134;5.578;2023-03-14T13:18:49;9.10;99.90
23721;DHT22;42950;52.134;5.578;2023-03-14T13:21:24;9.20;99.90
23721;DHT22;42950;52.134;5.578;2023-03-14T13:24:00;9.10;99.90
23721;DHT22;42950;52.134;5.578;2023-03-14T13:26:36;8.90;99.90
23721;DHT22;42950;52.134;5.578;2023-03-14T13:29:30;8.70;99.90
23721;DHT22;42950;52.134;5.578;2023-03-14T13:32:02;8.70;99.90
23721;DHT22;42950;52.134;5.578;2023-03-14T13:34:33;8.70;99.90
23721;DHT22;42950;52.134;5.578;2023-03-14T13:36:59;8.50;99.90
23721;DHT22;42950;52.134;5.578;2023-03-14T13:39:26;8.60;99.90
23721;DHT22;42950;52.134;5.578;2023-03-14T13:41:55;8.60;99.90
23721;DHT22;42950;52.134;5.578;2023-03-14T13:44:24;8.70;99.90
23721;DHT22;42950;52.134;5.578;2023-03-14T13:46:50;8.60;99.90
23721;DHT22;42950;52.134;5.578;2023-03-14T13:49:26;8.90;99.90
23721;DHT22;42950;52.134;5.578;2023-03-14T13:51:52;9.00;99.90
23721;DHT22;42950;52.134;5.578;2023-03-14T13:54:21;8.80;99.90
23721;DHT22;42950;52.134;5.578;2023-03-14T13:56:48;8.90;99.90
23721;DHT22;42950;52.134;5.578;2023-03-14T13:59:34;9.00;99.90
23721;DHT22;42950;52.134;5.578;2023-03-14T14:02:04;9.10;99.90
23721;DHT22;42950;52.134;5.578;2023-03-14T14:04:33;8.90;99.90
23721;DHT22;42950;52.134;5.578;2023-03-14T14:07:07;8.40;99.90
23721;DHT22;42950;52.134;5.578;2023-03-14T14:09:41;8.30;99.90
23721;DHT22;42950;52.134;5.578;2023-03-14T14:12:17;8.20;99.90
23721;DHT22;42950;52.134;5.578;2023-03-14T14:14:53;8.40;99.90
23721;DHT22;42950;52.134;5.578;2023-03-14T14:17:26;8.50;99.90
23721;DHT22;42950;52.134;5.578;2023-03-14T14:19:54;8.60;99.90
23721;DHT22;42950;52.134;5.578;2023-03-14T14:22:22;8.70;99.90
23721;DHT22;42950;52.134;5.578;2023-03-14T14:24:47;8.50;99.90
23721;DHT22;42950;52.134;5.578;2023-03-14T14:27:16;8.40;99.90
23721;DHT22;42950;52.134;5.578;2023-03-14T14:29:43;8.20;99.90
23721;DHT22;42950;52.134;5.578;2023-03-14T14:32:11;8.10;99.90
23721;DHT22;42950;52.134;5.578;2023-03-14T14:34:41;7.90;99.90
23721;DHT22;42950;52.134;5.578;2023-03-14T14:37:28;7.90;99.90
23721;DHT22;42950;52.134;5.578;2023-03-14T14:39:57;7.80;99.90
23721;DHT22;42950;52.134;5.578;2023-03-14T14:42:27;7.60;99.90
23721;DHT22;42950;52.134;5.578;2023-03-14T14:44:55;7.50;99.90
23721;DHT22;42950;52.134;5.578;2023-03-14T14:47:24;7.40;99.90
23721;DHT22;42950;52.134;5.578;2023-03-14T14:49:52;7.40;99.90
23721;DHT22;42950;52.134;5.578;2023-03-14T14:52:19;7.40;99.90
23721;DHT22;42950;52.134;5.578;2023-03-14T14:54:53;7.40;99.90
23721;DHT22;42950;52.134;5.578;2023-03-14T14:57:41;7.50;99.90
23721;DHT22;42950;52.134;5.578;2023-03-14T15:00:20;7.40;99.90
23721;DHT22;42950;52.134;5.578;2023-03-14T15:02:54;7.50;99.90
23721;DHT22;42950;52.134;5.578;2023-03-14T15:05:25;7.60;99.90
23721;DHT22;42950;52.134;5.578;2023-03-14T15:07:51;7.50;99.90
23721;DHT22;42950;52.134;5.578;2023-03-14T15:10:22;7.50;99.90
23721;DHT22;42950;52.134;5.578;2023-03-14T15:12:48;7.50;99.90
23721;DHT22;42950;52.134;5.578;2023-03-14T15:15:14;7.40;99.90
23721;DHT22;42950;52.134;5.578;2023-03-14T15:17:40;7.40;99.90
23721;DHT22;42950;52.134;5.578;2023-03-14T15:20:10;7.50;99.90
23721;DHT22;42950;52.134;5.578;2023-03-14T15:22:36;7.40;99.90
23721;DHT22;42950;52.134;5.578;2023-03-14T15:25:01;7.30;99.90
23721;DHT22;42950;52.134;5.578;2023-03-14T15:27:28;7.20;99.90
23721;DHT22;42950;52.134;5.578;2023-03-14T15:29:54;7.20;99.90
23721;DHT22;42950;52.134;5.578;2023-03-14T15:32:19;7.30;99.90
23721;DHT22;42950;52.134;5.578;2023-03-14T15:34:45;7.30;99.90
23721;DHT22;42950;52.134;5.578;2023-03-14T15:37:12;7.30;99.90
23721;DHT22;42950;52.134;5.578;2023-03-14T15:39:39;7.20;99.90
23721;DHT22;42950;52.134;5.578;2023-03-14T15:42:04;7.10;99.90
23721;DHT22;42950;52.134;5.578;2023-03-14T15:44:30;7.10;99.90
23721;DHT22;42950;52.134;5.578;2023-03-14T15:46:55;7.20;99.90
23721;DHT22;42950;52.134;5.578;2023-03-14T15:49:21;7.20;99.90
23721;DHT22;42950;52.134;5.578;2023-03-14T15:51:46;7.20;99.90
23721;DHT22;42950;52.134;5.578;2023-03-14T15:54:12;7.10;99.90
23721;DHT22;42950;52.134;5.578;2023-03-14T15:56:37;7.10;99.90
23721;DHT22;42950;52.134;5.578;2023-03-14T15:59:03;7.00;99.90
23721;DHT22;42950;52.134;5.578;2023-03-14T16:01:28;7.10;99.90
23721;DHT22;42950;52.134;5.578;2023-03-14T16:03:54;7.00;99.90
23721;DHT22;42950;52.134;5.578;2023-03-14T16:06:20;6.90;99.90
23721;DHT22;42950;52.134;5.578;2023-03-14T16:08:46;6.90;99.90
23721;DHT22;42950;52.134;5.578;2023-03-14T16:11:13;6.90;99.90
23721;DHT22;42950;52.134;5.578;2023-03-14T16:13:40;7.00;99.90
23721;DHT22;42950;52.134;5.578;2023-03-14T16:16:07;6.90;99.90
23721;DHT22;42950;52.134;5.578;2023-03-14T16:18:34;6.90;99.90
23721;DHT22;42950;52.134;5.578;2023-03-14T16:21:03;6.90;99.90
23721;DHT22;42950;52.134;5.578;2023-03-14T16:23:31;6.90;99.90
23721;DHT22;42950;52.134;5.578;2023-03-14T16:25:57;6.90;99.90
23721;DHT22;42950;52.134;5.578;2023-03-14T16:28:24;6.90;99.90
23721;DHT22;42950;52.134;5.578;2023-03-14T16:30:49;6.90;99.90
23721;DHT22;42950;52.134;5.578;2023-03-14T16:33:16;6.80;99.90
23721;DHT22;42950;52.134;5.578;2023-03-14T16:35:55;6.80;99.90
23721;DHT22;42950;52.134;5.578;2023-03-14T16:38:22;6.80;99.90